sensor_id;sensor_type;location;lat;lon;timestamp;P1;durP1;ratioP1;P2;durP2;ratioP2
22768;SDS011;13001;51.968;5.918;2022-09-03T00:01:56;699.08;;;650.17;;
22768;SDS011;13001;51.968;5.918;2022-09-03T00:05:07;698.93;;;650.37;;
22768;SDS011;13001;51.968;5.918;2022-09-03T00:06:57;710.73;;;660.95;;
22768;SDS011;13001;51.968;5.918;2022-09-03T00:09:24;703.67;;;654.60;;
22768;SDS011;13001;51.968;5.918;2022-09-03T00:11:57;686.30;;;639.45;;
22768;SDS011;13001;51.968;5.918;2022-09-03T00:14:25;702.73;;;654.15;;
22768;SDS011;13001;51.968;5.918;2022-09-03T00:16:56;689.78;;;642.33;;
22768;SDS011;13001;51.968;5.918;2022-09-03T00:19:22;682.88;;;636.62;;
22768;SDS011;13001;51.968;5.918;2022-09-03T00:21:50;693.15;;;645.17;;
22768;SDS011;13001;51.968;5.918;2022-09-03T00:24:18;700.38;;;651.82;;
22768;SDS011;13001;51.968;5.918;2022-09-03T00:26:49;704.90;;;656.15;;
22768;SDS011;13001;51.968;5.918;2022-09-03T00:29:18;672.80;;;626.90;;
22768;SDS011;13001;51.968;5.918;2022-09-03T00:31:54;645.97;;;601.93;;
22768;SDS011;13001;51.968;5.918;2022-09-03T00:34:29;657.35;;;612.80;;
22768;SDS011;13001;51.968;5.918;2022-09-03T00:36:52;646.20;;;603.17;;
22768;SDS011;13001;51.968;5.918;2022-09-03T00:39:21;642.63;;;600.20;;
22768;SDS011;13001;51.968;5.918;2022-09-03T00:41:54;663.00;;;618.27;;
22768;SDS011;13001;51.968;5.918;2022-09-03T00:46:59;663.08;;;618.87;;
22768;SDS011;13001;51.968;5.918;2022-09-03T00:54:40;666.88;;;622.30;;
22768;SDS011;13001;51.968;5.918;2022-09-03T00:57:20;656.27;;;612.42;;
22768;SDS011;13001;51.968;5.918;2022-09-03T01:10:25;645.27;;;602.08;;
22768;SDS011;13001;51.968;5.918;2022-09-03T01:12:55;649.38;;;605.92;;
22768;SDS011;13001;51.968;5.918;2022-09-03T01:15:34;624.27;;;582.42;;
22768;SDS011;13001;51.968;5.918;2022-09-03T01:18:05;645.45;;;601.98;;
22768;SDS011;13001;51.968;5.918;2022-09-03T01:20:34;658.77;;;614.47;;
22768;SDS011;13001;51.968;5.918;2022-09-03T01:25:48;617.98;;;576.75;;
22768;SDS011;13001;51.968;5.918;2022-09-03T01:28:38;638.22;;;595.57;;
22768;SDS011;13001;51.968;5.918;2022-09-03T01:31:05;631.35;;;589.27;;
22768;SDS011;13001;51.968;5.918;2022-09-03T01:33:34;640.83;;;597.52;;
22768;SDS011;13001;51.968;5.918;2022-09-03T01:36:14;632.42;;;589.67;;
22768;SDS011;13001;51.968;5.918;2022-09-03T01:41:31;621.20;;;579.42;;
22768;SDS011;13001;51.968;5.918;2022-09-03T01:46:40;590.83;;;551.10;;
22768;SDS011;13001;51.968;5.918;2022-09-03T01:49:18;626.05;;;583.90;;
22768;SDS011;13001;51.968;5.918;2022-09-03T01:51:49;571.35;;;533.45;;
22768;SDS011;13001;51.968;5.918;2022-09-03T01:54:25;560.85;;;523.90;;
22768;SDS011;13001;51.968;5.918;2022-09-03T02:00:00;559.87;;;522.67;;
22768;SDS011;13001;51.968;5.918;2022-09-03T02:02:13;603.55;;;562.72;;
22768;SDS011;13001;51.968;5.918;2022-09-03T02:04:34;597.87;;;557.73;;
22768;SDS011;13001;51.968;5.918;2022-09-03T02:07:02;576.20;;;537.72;;
22768;SDS011;13001;51.968;5.918;2022-09-03T02:09:31;595.75;;;555.73;;
22768;SDS011;13001;51.968;5.918;2022-09-03T02:12:02;570.40;;;532.40;;
22768;SDS011;13001;51.968;5.918;2022-09-03T02:14:30;557.23;;;520.20;;
22768;SDS011;13001;51.968;5.918;2022-09-03T02:16:58;566.45;;;528.12;;
22768;SDS011;13001;51.968;5.918;2022-09-03T02:19:26;595.52;;;555.25;;
22768;SDS011;13001;51.968;5.918;2022-09-03T02:21:54;581.90;;;542.00;;
22768;SDS011;13001;51.968;5.918;2022-09-03T02:24:27;585.52;;;545.77;;
22768;SDS011;13001;51.968;5.918;2022-09-03T02:26:51;558.83;;;520.77;;
22768;SDS011;13001;51.968;5.918;2022-09-03T02:29:18;545.00;;;508.18;;
22768;SDS011;13001;51.968;5.918;2022-09-03T02:31:46;530.33;;;494.58;;
22768;SDS011;13001;51.968;5.918;2022-09-03T02:34:13;527.60;;;492.37;;
22768;SDS011;13001;51.968;5.918;2022-09-03T02:36:42;542.57;;;505.90;;
22768;SDS011;13001;51.968;5.918;2022-09-03T02:39:11;540.80;;;504.03;;
22768;SDS011;13001;51.968;5.918;2022-09-03T02:41:39;541.30;;;504.77;;
22768;SDS011;13001;51.968;5.918;2022-09-03T02:44:13;553.88;;;516.08;;
22768;SDS011;13001;51.968;5.918;2022-09-03T02:49:10;537.92;;;501.75;;
22768;SDS011;13001;51.968;5.918;2022-09-03T02:51:39;527.97;;;492.67;;
22768;SDS011;13001;51.968;5.918;2022-09-03T02:54:07;525.48;;;490.00;;
22768;SDS011;13001;51.968;5.918;2022-09-03T02:56:35;541.77;;;505.13;;
22768;SDS011;13001;51.968;5.918;2022-09-03T02:59:04;510.27;;;476.07;;
22768;SDS011;13001;51.968;5.918;2022-09-03T03:01:31;514.48;;;480.07;;
22768;SDS011;13001;51.968;5.918;2022-09-03T03:03:58;528.35;;;493.10;;
22768;SDS011;13001;51.968;5.918;2022-09-03T03:06:26;529.48;;;494.02;;
22768;SDS011;13001;51.968;5.918;2022-09-03T03:08:53;558.85;;;520.10;;
22768;SDS011;13001;51.968;5.918;2022-09-03T03:11:21;530.80;;;494.95;;
22768;SDS011;13001;51.968;5.918;2022-09-03T03:13:50;534.80;;;498.47;;
22768;SDS011;13001;51.968;5.918;2022-09-03T03:16:17;554.17;;;515.42;;
22768;SDS011;13001;51.968;5.918;2022-09-03T03:18:45;531.47;;;494.80;;
22768;SDS011;13001;51.968;5.918;2022-09-03T03:21:15;525.03;;;489.20;;
22768;SDS011;13001;51.968;5.918;2022-09-03T03:23:43;504.80;;;470.65;;
22768;SDS011;13001;51.968;5.918;2022-09-03T03:26:12;513.97;;;478.73;;
22768;SDS011;13001;51.968;5.918;2022-09-03T03:28:39;498.50;;;464.60;;
22768;SDS011;13001;51.968;5.918;2022-09-03T03:31:08;497.05;;;463.63;;
22768;SDS011;13001;51.968;5.918;2022-09-03T03:33:37;488.57;;;455.13;;
22768;SDS011;13001;51.968;5.918;2022-09-03T03:36:05;488.15;;;454.80;;
22768;SDS011;13001;51.968;5.918;2022-09-03T03:38:33;485.23;;;452.50;;
22768;SDS011;13001;51.968;5.918;2022-09-03T03:41:07;495.52;;;462.02;;
22768;SDS011;13001;51.968;5.918;2022-09-03T03:43:35;502.97;;;468.70;;
22768;SDS011;13001;51.968;5.918;2022-09-03T03:46:02;486.70;;;453.82;;
22768;SDS011;13001;51.968;5.918;2022-09-03T03:48:31;488.72;;;455.48;;
22768;SDS011;13001;51.968;5.918;2022-09-03T03:51:01;464.80;;;433.53;;
22768;SDS011;13001;51.968;5.918;2022-09-03T03:53:30;484.33;;;451.22;;
22768;SDS011;13001;51.968;5.918;2022-09-03T03:55:58;472.00;;;440.05;;
22768;SDS011;13001;51.968;5.918;2022-09-03T03:58:29;481.50;;;448.85;;
22768;SDS011;13001;51.968;5.918;2022-09-03T04:01:08;500.45;;;466.77;;
22768;SDS011;13001;51.968;5.918;2022-09-03T04:03:33;470.95;;;439.87;;
22768;SDS011;13001;51.968;5.918;2022-09-03T04:06:00;479.45;;;447.07;;
22768;SDS011;13001;51.968;5.918;2022-09-03T04:08:32;476.93;;;444.82;;
22768;SDS011;13001;51.968;5.918;2022-09-03T04:10:59;481.90;;;449.42;;
22768;SDS011;13001;51.968;5.918;2022-09-03T04:13:28;474.10;;;442.27;;
22768;SDS011;13001;51.968;5.918;2022-09-03T04:16:00;488.85;;;455.93;;
22768;SDS011;13001;51.968;5.918;2022-09-03T04:18:28;459.90;;;428.80;;
22768;SDS011;13001;51.968;5.918;2022-09-03T04:21:04;460.90;;;429.98;;
22768;SDS011;13001;51.968;5.918;2022-09-03T04:23:32;456.17;;;425.40;;
22768;SDS011;13001;51.968;5.918;2022-09-03T04:25:59;475.27;;;443.73;;
22768;SDS011;13001;51.968;5.918;2022-09-03T04:28:27;474.80;;;443.10;;
22768;SDS011;13001;51.968;5.918;2022-09-03T04:30:58;462.92;;;432.35;;
22768;SDS011;13001;51.968;5.918;2022-09-03T04:33:23;465.38;;;434.22;;
22768;SDS011;13001;51.968;5.918;2022-09-03T04:35:50;449.20;;;419.37;;
22768;SDS011;13001;51.968;5.918;2022-09-03T04:38:18;480.10;;;448.45;;
22768;SDS011;13001;51.968;5.918;2022-09-03T04:40:50;458.87;;;428.97;;
22768;SDS011;13001;51.968;5.918;2022-09-03T04:43:14;446.63;;;417.80;;
22768;SDS011;13001;51.968;5.918;2022-09-03T04:45:41;449.80;;;420.87;;
22768;SDS011;13001;51.968;5.918;2022-09-03T04:48:08;462.55;;;432.35;;
22768;SDS011;13001;51.968;5.918;2022-09-03T04:50:37;463.22;;;433.42;;
22768;SDS011;13001;51.968;5.918;2022-09-03T04:53:04;457.90;;;427.73;;
22768;SDS011;13001;51.968;5.918;2022-09-03T04:55:37;447.55;;;418.48;;
22768;SDS011;13001;51.968;5.918;2022-09-03T04:58:00;455.03;;;425.35;;
22768;SDS011;13001;51.968;5.918;2022-09-03T05:00:28;447.13;;;418.07;;
22768;SDS011;13001;51.968;5.918;2022-09-03T05:02:55;456.15;;;427.13;;
22768;SDS011;13001;51.968;5.918;2022-09-03T05:05:25;463.52;;;434.13;;
22768;SDS011;13001;51.968;5.918;2022-09-03T05:07:56;454.87;;;426.40;;
22768;SDS011;13001;51.968;5.918;2022-09-03T05:10:22;450.70;;;422.45;;
22768;SDS011;13001;51.968;5.918;2022-09-03T05:13:05;465.02;;;435.95;;
22768;SDS011;13001;51.968;5.918;2022-09-03T05:15:32;492.05;;;460.93;;
22768;SDS011;13001;51.968;5.918;2022-09-03T05:17:59;530.47;;;495.60;;
22768;SDS011;13001;51.968;5.918;2022-09-03T05:20:27;555.33;;;517.15;;
22768;SDS011;13001;51.968;5.918;2022-09-03T05:22:55;549.65;;;511.95;;
22768;SDS011;13001;51.968;5.918;2022-09-03T05:25:23;520.27;;;479.97;;
22768;SDS011;13001;51.968;5.918;2022-09-03T05:27:50;595.27;;;547.50;;
22768;SDS011;13001;51.968;5.918;2022-09-03T05:30:19;651.70;;;599.40;;
22768;SDS011;13001;51.968;5.918;2022-09-03T05:35:27;683.65;;;631.58;;
22768;SDS011;13001;51.968;5.918;2022-09-03T05:37:54;669.45;;;621.17;;
22768;SDS011;13001;51.968;5.918;2022-09-03T05:40:21;591.15;;;551.65;;
22768;SDS011;13001;51.968;5.918;2022-09-03T05:42:53;535.65;;;500.25;;
22768;SDS011;13001;51.968;5.918;2022-09-03T05:45:18;614.10;;;571.58;;
22768;SDS011;13001;51.968;5.918;2022-09-03T05:47:45;675.50;;;626.02;;
22768;SDS011;13001;51.968;5.918;2022-09-03T05:50:12;494.90;;;462.25;;
22768;SDS011;13001;51.968;5.918;2022-09-03T05:52:40;477.70;;;444.50;;
22768;SDS011;13001;51.968;5.918;2022-09-03T05:55:07;471.55;;;436.95;;
22768;SDS011;13001;51.968;5.918;2022-09-03T05:57:34;472.50;;;436.10;;
22768;SDS011;13001;51.968;5.918;2022-09-03T06:00:02;527.95;;;485.97;;
22768;SDS011;13001;51.968;5.918;2022-09-03T06:02:29;552.05;;;507.95;;
22768;SDS011;13001;51.968;5.918;2022-09-03T06:04:57;595.27;;;547.95;;
22768;SDS011;13001;51.968;5.918;2022-09-03T06:07:25;645.25;;;596.12;;
22768;SDS011;13001;51.968;5.918;2022-09-03T06:09:52;671.33;;;620.38;;
22768;SDS011;13001;51.968;5.918;2022-09-03T06:12:19;670.12;;;620.17;;
22768;SDS011;13001;51.968;5.918;2022-09-03T06:14:48;650.27;;;604.15;;
22768;SDS011;13001;51.968;5.918;2022-09-03T06:49:10;256.73;;;240.95;;
22768;SDS011;13001;51.968;5.918;2022-09-03T06:58:58;345.88;;;321.95;;
22768;SDS011;13001;51.968;5.918;2022-09-03T07:01:27;395.50;;;367.35;;
22768;SDS011;13001;51.968;5.918;2022-09-03T07:03:57;495.62;;;460.25;;
22768;SDS011;13001;51.968;5.918;2022-09-03T07:06:27;661.15;;;611.33;;
22768;SDS011;13001;51.968;5.918;2022-09-03T07:08:54;726.80;;;670.85;;
22768;SDS011;13001;51.968;5.918;2022-09-03T07:11:23;722.20;;;668.50;;
22768;SDS011;13001;51.968;5.918;2022-09-03T07:13:52;756.95;;;701.27;;
22768;SDS011;13001;51.968;5.918;2022-09-03T07:16:22;733.58;;;680.42;;
22768;SDS011;13001;51.968;5.918;2022-09-03T07:18:49;734.77;;;682.38;;
22768;SDS011;13001;51.968;5.918;2022-09-03T07:21:19;717.98;;;666.75;;
22768;SDS011;13001;51.968;5.918;2022-09-03T07:23:47;677.95;;;631.05;;
22768;SDS011;13001;51.968;5.918;2022-09-03T07:26:24;651.80;;;607.47;;
22768;SDS011;13001;51.968;5.918;2022-09-03T07:28:51;638.55;;;595.83;;
22768;SDS011;13001;51.968;5.918;2022-09-03T07:31:21;536.33;;;501.73;;
22768;SDS011;13001;51.968;5.918;2022-09-03T07:33:56;444.62;;;416.65;;
22768;SDS011;13001;51.968;5.918;2022-09-03T07:36:22;437.65;;;410.52;;
22768;SDS011;13001;51.968;5.918;2022-09-03T07:38:50;452.45;;;424.50;;
22768;SDS011;13001;51.968;5.918;2022-09-03T07:41:17;374.82;;;351.25;;
22768;SDS011;13001;51.968;5.918;2022-09-03T07:43:45;343.50;;;323.00;;
22768;SDS011;13001;51.968;5.918;2022-09-03T07:46:16;335.85;;;316.10;;
22768;SDS011;13001;51.968;5.918;2022-09-03T07:48:48;323.02;;;303.67;;
22768;SDS011;13001;51.968;5.918;2022-09-03T07:51:17;317.07;;;298.55;;
22768;SDS011;13001;51.968;5.918;2022-09-03T07:53:46;268.70;;;253.32;;
22768;SDS011;13001;51.968;5.918;2022-09-03T07:56:15;254.70;;;240.60;;
22768;SDS011;13001;51.968;5.918;2022-09-03T07:58:43;241.53;;;228.07;;
22768;SDS011;13001;51.968;5.918;2022-09-03T08:01:11;232.27;;;219.15;;
22768;SDS011;13001;51.968;5.918;2022-09-03T08:03:41;291.60;;;275.22;;
22768;SDS011;13001;51.968;5.918;2022-09-03T08:06:07;293.67;;;276.50;;
22768;SDS011;13001;51.968;5.918;2022-09-03T08:08:35;326.25;;;307.15;;
22768;SDS011;13001;51.968;5.918;2022-09-03T08:11:05;360.88;;;339.08;;
22768;SDS011;13001;51.968;5.918;2022-09-03T08:13:39;369.05;;;346.68;;
22768;SDS011;13001;51.968;5.918;2022-09-03T08:16:09;397.25;;;372.58;;
22768;SDS011;13001;51.968;5.918;2022-09-03T08:18:36;430.48;;;403.12;;
22768;SDS011;13001;51.968;5.918;2022-09-03T08:21:05;424.32;;;397.57;;
22768;SDS011;13001;51.968;5.918;2022-09-03T08:23:38;411.38;;;385.88;;
22768;SDS011;13001;51.968;5.918;2022-09-03T08:26:02;403.68;;;378.58;;
22768;SDS011;13001;51.968;5.918;2022-09-03T08:28:29;404.92;;;379.75;;
22768;SDS011;13001;51.968;5.918;2022-09-03T08:31:03;409.90;;;384.62;;
22768;SDS011;13001;51.968;5.918;2022-09-03T08:33:27;396.05;;;371.70;;
22768;SDS011;13001;51.968;5.918;2022-09-03T08:36:05;405.60;;;380.57;;
22768;SDS011;13001;51.968;5.918;2022-09-03T08:38:33;408.18;;;382.27;;
22768;SDS011;13001;51.968;5.918;2022-09-03T08:41:02;399.65;;;375.07;;
22768;SDS011;13001;51.968;5.918;2022-09-03T08:43:30;429.87;;;402.30;;
22768;SDS011;13001;51.968;5.918;2022-09-03T08:45:58;381.20;;;358.38;;
22768;SDS011;13001;51.968;5.918;2022-09-03T08:48:27;374.25;;;352.25;;
22768;SDS011;13001;51.968;5.918;2022-09-03T08:50:55;347.40;;;327.75;;
22768;SDS011;13001;51.968;5.918;2022-09-03T08:53:27;327.25;;;309.30;;
22768;SDS011;13001;51.968;5.918;2022-09-03T08:55:55;349.85;;;331.05;;
22768;SDS011;13001;51.968;5.918;2022-09-03T08:58:26;354.20;;;334.65;;
22768;SDS011;13001;51.968;5.918;2022-09-03T09:08:45;369.57;;;349.00;;
22768;SDS011;13001;51.968;5.918;2022-09-03T09:11:29;365.43;;;345.10;;
22768;SDS011;13001;51.968;5.918;2022-09-03T09:14:01;397.15;;;373.70;;
22768;SDS011;13001;51.968;5.918;2022-09-03T09:16:30;395.25;;;371.93;;
22768;SDS011;13001;51.968;5.918;2022-09-03T09:19:04;389.98;;;367.25;;
22768;SDS011;13001;51.968;5.918;2022-09-03T09:21:30;390.82;;;367.95;;
22768;SDS011;13001;51.968;5.918;2022-09-03T09:23:59;408.55;;;384.10;;
22768;SDS011;13001;51.968;5.918;2022-09-03T09:26:26;412.65;;;388.20;;
22768;SDS011;13001;51.968;5.918;2022-09-03T09:29:00;390.20;;;366.73;;
22768;SDS011;13001;51.968;5.918;2022-09-03T09:31:23;409.30;;;385.60;;
22768;SDS011;13001;51.968;5.918;2022-09-03T09:33:54;409.37;;;385.75;;
22768;SDS011;13001;51.968;5.918;2022-09-03T09:36:21;407.80;;;384.25;;
22768;SDS011;13001;51.968;5.918;2022-09-03T09:38:48;387.63;;;365.60;;
22768;SDS011;13001;51.968;5.918;2022-09-03T09:41:19;391.65;;;369.73;;
22768;SDS011;13001;51.968;5.918;2022-09-03T09:43:58;379.18;;;357.92;;
22768;SDS011;13001;51.968;5.918;2022-09-03T09:46:21;365.62;;;344.57;;
22768;SDS011;13001;51.968;5.918;2022-09-03T09:48:52;380.18;;;357.45;;
22768;SDS011;13001;51.968;5.918;2022-09-03T09:51:23;411.95;;;385.95;;
22768;SDS011;13001;51.968;5.918;2022-09-03T09:54:11;470.12;;;439.30;;
22768;SDS011;13001;51.968;5.918;2022-09-03T09:56:32;495.38;;;461.88;;
22768;SDS011;13001;51.968;5.918;2022-09-03T09:59:08;453.55;;;423.50;;
22768;SDS011;13001;51.968;5.918;2022-09-03T10:01:31;451.07;;;420.57;;
22768;SDS011;13001;51.968;5.918;2022-09-03T10:04:00;427.23;;;398.87;;
22768;SDS011;13001;51.968;5.918;2022-09-03T10:06:29;429.42;;;401.90;;
22768;SDS011;13001;51.968;5.918;2022-09-03T10:09:18;391.47;;;366.93;;
22768;SDS011;13001;51.968;5.918;2022-09-03T10:12:03;395.40;;;370.37;;
22768;SDS011;13001;51.968;5.918;2022-09-03T10:14:36;411.12;;;383.82;;
22768;SDS011;13001;51.968;5.918;2022-09-03T10:17:10;427.75;;;399.42;;
22768;SDS011;13001;51.968;5.918;2022-09-03T10:22:42;442.27;;;413.07;;
22768;SDS011;13001;51.968;5.918;2022-09-03T10:25:12;438.40;;;408.68;;
22768;SDS011;13001;51.968;5.918;2022-09-03T10:27:40;464.17;;;432.77;;
22768;SDS011;13001;51.968;5.918;2022-09-03T10:30:09;440.32;;;410.78;;
22768;SDS011;13001;51.968;5.918;2022-09-03T10:35:20;511.58;;;476.05;;
22768;SDS011;13001;51.968;5.918;2022-09-03T10:37:59;425.92;;;398.68;;
22768;SDS011;13001;51.968;5.918;2022-09-03T10:43:08;340.20;;;318.33;;
22768;SDS011;13001;51.968;5.918;2022-09-03T10:45:41;332.62;;;310.82;;
22768;SDS011;13001;51.968;5.918;2022-09-03T10:48:26;322.95;;;302.32;;
22768;SDS011;13001;51.968;5.918;2022-09-03T10:53:37;316.12;;;295.73;;
22768;SDS011;13001;51.968;5.918;2022-09-03T10:56:06;364.35;;;340.95;;
22768;SDS011;13001;51.968;5.918;2022-09-03T11:01:09;346.57;;;323.93;;
22768;SDS011;13001;51.968;5.918;2022-09-03T11:11:13;743.27;;;686.10;;
22768;SDS011;13001;51.968;5.918;2022-09-03T11:13:43;729.23;;;675.53;;
22768;SDS011;13001;51.968;5.918;2022-09-03T11:16:11;796.95;;;735.23;;
22768;SDS011;13001;51.968;5.918;2022-09-03T11:18:43;754.10;;;697.47;;
22768;SDS011;13001;51.968;5.918;2022-09-03T11:21:11;788.30;;;728.23;;
22768;SDS011;13001;51.968;5.918;2022-09-03T11:23:40;753.67;;;696.50;;
22768;SDS011;13001;51.968;5.918;2022-09-03T11:26:09;757.02;;;699.98;;
22768;SDS011;13001;51.968;5.918;2022-09-03T11:28:43;794.57;;;733.50;;
22768;SDS011;13001;51.968;5.918;2022-09-03T11:31:15;777.20;;;717.97;;
22768;SDS011;13001;51.968;5.918;2022-09-03T11:33:44;780.13;;;720.70;;
22768;SDS011;13001;51.968;5.918;2022-09-03T11:36:11;772.50;;;713.50;;
22768;SDS011;13001;51.968;5.918;2022-09-03T11:38:39;797.52;;;734.87;;
22768;SDS011;13001;51.968;5.918;2022-09-03T11:41:21;778.70;;;717.83;;
22768;SDS011;13001;51.968;5.918;2022-09-03T11:43:44;777.47;;;717.15;;
22768;SDS011;13001;51.968;5.918;2022-09-03T11:46:12;765.92;;;706.70;;
22768;SDS011;13001;51.968;5.918;2022-09-03T11:48:42;762.45;;;704.00;;
22768;SDS011;13001;51.968;5.918;2022-09-03T11:54:02;777.73;;;717.42;;
22768;SDS011;13001;51.968;5.918;2022-09-03T11:56:25;730.30;;;674.63;;
22768;SDS011;13001;51.968;5.918;2022-09-03T11:59:14;733.35;;;677.70;;
22768;SDS011;13001;51.968;5.918;2022-09-03T12:01:33;777.70;;;717.58;;
22768;SDS011;13001;51.968;5.918;2022-09-03T12:04:07;715.15;;;661.55;;
22768;SDS011;13001;51.968;5.918;2022-09-03T12:06:37;711.23;;;658.00;;
22768;SDS011;13001;51.968;5.918;2022-09-03T12:11:40;742.08;;;685.75;;
22768;SDS011;13001;51.968;5.918;2022-09-03T12:16:49;680.73;;;631.50;;
22768;SDS011;13001;51.968;5.918;2022-09-03T12:19:20;663.52;;;615.75;;
22768;SDS011;13001;51.968;5.918;2022-09-03T12:21:49;647.67;;;602.02;;
22768;SDS011;13001;51.968;5.918;2022-09-03T12:24:16;659.42;;;612.60;;
22768;SDS011;13001;51.968;5.918;2022-09-03T12:26:45;656.83;;;610.20;;
22768;SDS011;13001;51.968;5.918;2022-09-03T12:29:19;643.03;;;598.43;;
22768;SDS011;13001;51.968;5.918;2022-09-03T12:31:48;649.95;;;604.17;;
22768;SDS011;13001;51.968;5.918;2022-09-03T12:34:17;641.02;;;596.30;;
22768;SDS011;13001;51.968;5.918;2022-09-03T12:36:46;635.27;;;591.55;;
22768;SDS011;13001;51.968;5.918;2022-09-03T12:39:15;649.45;;;605.03;;
22768;SDS011;13001;51.968;5.918;2022-09-03T12:41:55;624.30;;;582.40;;
22768;SDS011;13001;51.968;5.918;2022-09-03T12:44:25;607.55;;;566.88;;
22768;SDS011;13001;51.968;5.918;2022-09-03T12:47:05;617.17;;;575.85;;
22768;SDS011;13001;51.968;5.918;2022-09-03T12:50:07;599.00;;;559.25;;
22768;SDS011;13001;51.968;5.918;2022-09-03T12:52:15;614.60;;;574.23;;
22768;SDS011;13001;51.968;5.918;2022-09-03T12:54:45;602.13;;;562.72;;
22768;SDS011;13001;51.968;5.918;2022-09-03T12:57:10;610.57;;;570.47;;
22768;SDS011;13001;51.968;5.918;2022-09-03T12:59:39;618.05;;;577.02;;
22768;SDS011;13001;51.968;5.918;2022-09-03T13:02:12;611.75;;;571.17;;
22768;SDS011;13001;51.968;5.918;2022-09-03T13:04:35;630.13;;;587.60;;
22768;SDS011;13001;51.968;5.918;2022-09-03T13:07:23;626.70;;;585.23;;
22768;SDS011;13001;51.968;5.918;2022-09-03T13:09:50;645.90;;;602.95;;
22768;SDS011;13001;51.968;5.918;2022-09-03T13:12:28;679.95;;;632.40;;
22768;SDS011;13001;51.968;5.918;2022-09-03T13:14:55;642.42;;;599.65;;
22768;SDS011;13001;51.968;5.918;2022-09-03T13:20:08;667.83;;;622.02;;
22768;SDS011;13001;51.968;5.918;2022-09-03T13:22:37;690.00;;;642.53;;
22768;SDS011;13001;51.968;5.918;2022-09-03T13:27:53;738.50;;;686.20;;
22768;SDS011;13001;51.968;5.918;2022-09-03T13:30:21;729.07;;;677.20;;
22768;SDS011;13001;51.968;5.918;2022-09-03T13:35:36;735.05;;;683.70;;
22768;SDS011;13001;51.968;5.918;2022-09-03T13:38:23;730.83;;;679.25;;
22768;SDS011;13001;51.968;5.918;2022-09-03T13:41:00;742.10;;;689.65;;
22768;SDS011;13001;51.968;5.918;2022-09-03T13:43:34;740.92;;;688.50;;
22768;SDS011;13001;51.968;5.918;2022-09-03T13:46:02;737.30;;;685.17;;
22768;SDS011;13001;51.968;5.918;2022-09-03T13:48:37;748.62;;;695.12;;
22768;SDS011;13001;51.968;5.918;2022-09-03T13:54:02;763.00;;;708.38;;
22768;SDS011;13001;51.968;5.918;2022-09-03T13:59:06;757.52;;;703.30;;
22768;SDS011;13001;51.968;5.918;2022-09-03T14:04:02;757.33;;;703.10;;
22768;SDS011;13001;51.968;5.918;2022-09-03T14:06:37;757.50;;;703.90;;
22768;SDS011;13001;51.968;5.918;2022-09-03T14:09:08;752.55;;;699.33;;
22768;SDS011;13001;51.968;5.918;2022-09-03T14:11:37;732.95;;;681.52;;
22768;SDS011;13001;51.968;5.918;2022-09-03T14:14:19;747.70;;;694.75;;
22768;SDS011;13001;51.968;5.918;2022-09-03T14:16:56;739.13;;;686.40;;
22768;SDS011;13001;51.968;5.918;2022-09-03T14:22:16;711.73;;;661.85;;
22768;SDS011;13001;51.968;5.918;2022-09-03T14:24:46;725.77;;;674.17;;
22768;SDS011;13001;51.968;5.918;2022-09-03T14:27:21;720.88;;;670.10;;
22768;SDS011;13001;51.968;5.918;2022-09-03T14:29:49;729.90;;;678.73;;
22768;SDS011;13001;51.968;5.918;2022-09-03T14:32:14;723.30;;;672.33;;
22768;SDS011;13001;51.968;5.918;2022-09-03T14:37:28;742.48;;;689.50;;
22768;SDS011;13001;51.968;5.918;2022-09-03T14:39:53;750.17;;;697.15;;
22768;SDS011;13001;51.968;5.918;2022-09-03T14:42:23;753.02;;;699.17;;
22768;SDS011;13001;51.968;5.918;2022-09-03T14:47:26;771.75;;;716.12;;
22768;SDS011;13001;51.968;5.918;2022-09-03T14:52:38;750.40;;;696.98;;
22768;SDS011;13001;51.968;5.918;2022-09-03T14:55:04;746.65;;;693.30;;
22768;SDS011;13001;51.968;5.918;2022-09-03T14:57:34;741.45;;;689.35;;
22768;SDS011;13001;51.968;5.918;2022-09-03T15:05:35;743.30;;;690.35;;
22768;SDS011;13001;51.968;5.918;2022-09-03T15:07:58;774.27;;;718.67;;
22768;SDS011;13001;51.968;5.918;2022-09-03T15:10:31;765.87;;;711.10;;
22768;SDS011;13001;51.968;5.918;2022-09-03T15:13:17;783.07;;;726.95;;
22768;SDS011;13001;51.968;5.918;2022-09-03T15:15:53;750.53;;;696.95;;
22768;SDS011;13001;51.968;5.918;2022-09-03T15:20:53;773.85;;;718.35;;
22768;SDS011;13001;51.968;5.918;2022-09-03T15:23:24;775.85;;;719.95;;
22768;SDS011;13001;51.968;5.918;2022-09-03T15:31:01;780.22;;;723.92;;
22768;SDS011;13001;51.968;5.918;2022-09-03T15:33:31;783.62;;;726.75;;
22768;SDS011;13001;51.968;5.918;2022-09-03T15:41:06;788.95;;;731.87;;
22768;SDS011;13001;51.968;5.918;2022-09-03T15:43:33;780.40;;;724.33;;
22768;SDS011;13001;51.968;5.918;2022-09-03T15:46:06;789.13;;;731.95;;
22768;SDS011;13001;51.968;5.918;2022-09-03T15:48:33;804.78;;;746.20;;
22768;SDS011;13001;51.968;5.918;2022-09-03T15:53:48;806.53;;;748.15;;
22768;SDS011;13001;51.968;5.918;2022-09-03T15:56:23;793.52;;;735.97;;
22768;SDS011;13001;51.968;5.918;2022-09-03T15:59:00;793.30;;;735.27;;
22768;SDS011;13001;51.968;5.918;2022-09-03T16:01:33;821.48;;;761.47;;
22768;SDS011;13001;51.968;5.918;2022-09-03T16:04:01;835.43;;;774.12;;
22768;SDS011;13001;51.968;5.918;2022-09-03T16:06:35;817.00;;;757.23;;
22768;SDS011;13001;51.968;5.918;2022-09-03T16:09:24;808.30;;;749.10;;
22768;SDS011;13001;51.968;5.918;2022-09-03T16:11:53;801.00;;;742.92;;
22768;SDS011;13001;51.968;5.918;2022-09-03T16:14:25;797.63;;;739.17;;
22768;SDS011;13001;51.968;5.918;2022-09-03T16:16:53;802.85;;;744.30;;
22768;SDS011;13001;51.968;5.918;2022-09-03T16:19:27;812.95;;;753.58;;
22768;SDS011;13001;51.968;5.918;2022-09-03T16:21:59;808.70;;;749.60;;
22768;SDS011;13001;51.968;5.918;2022-09-03T16:24:30;801.55;;;743.17;;
22768;SDS011;13001;51.968;5.918;2022-09-03T16:27:02;822.50;;;761.58;;
22768;SDS011;13001;51.968;5.918;2022-09-03T16:29:26;807.70;;;748.58;;
22768;SDS011;13001;51.968;5.918;2022-09-03T16:34:38;808.33;;;749.27;;
22768;SDS011;13001;51.968;5.918;2022-09-03T16:37:22;818.85;;;759.00;;
22768;SDS011;13001;51.968;5.918;2022-09-03T16:42:25;839.27;;;775.85;;
22768;SDS011;13001;51.968;5.918;2022-09-03T16:47:55;842.97;;;778.57;;
22768;SDS011;13001;51.968;5.918;2022-09-03T16:55:22;778.70;;;718.37;;
22768;SDS011;13001;51.968;5.918;2022-09-03T16:57:59;742.20;;;684.60;;
22768;SDS011;13001;51.968;5.918;2022-09-03T17:00:50;691.00;;;636.28;;
22768;SDS011;13001;51.968;5.918;2022-09-03T17:03:12;662.33;;;610.37;;
22768;SDS011;13001;51.968;5.918;2022-09-03T17:11:03;613.05;;;564.92;;